sensor_id;sensor_type;location;lat;lon;timestamp;pressure;altitude;pressure_sealevel;temperature
20103;BMP180;10210;52.284;9.892;2023-04-25T00:01:24;99632.00;;;13.00
20103;BMP180;10210;52.284;9.892;2023-04-25T00:03:50;99626.00;;;13.00
20103;BMP180;10210;52.284;9.892;2023-04-25T00:06:16;99631.00;;;13.00
20103;BMP180;10210;52.284;9.892;2023-04-25T00:08:43;99625.00;;;13.00
20103;BMP180;10210;52.284;9.892;2023-04-25T00:11:09;99626.00;;;13.00
20103;BMP180;10210;52.284;9.892;2023-04-25T00:13:35;99620.00;;;13.00
20103;BMP180;10210;52.284;9.892;2023-04-25T00:16:00;99629.00;;;13.00
20103;BMP180;10210;52.284;9.892;2023-04-25T00:18:28;99633.00;;;13.00
20103;BMP180;10210;52.284;9.892;2023-04-25T00:20:58;99631.00;;;13.00
20103;BMP180;10210;52.284;9.892;2023-04-25T00:23:24;99634.00;;;13.00
20103;BMP180;10210;52.284;9.892;2023-04-25T00:25:50;99634.00;;;13.00
20103;BMP180;10210;52.284;9.892;2023-04-25T00:28:16;99637.00;;;13.10
20103;BMP180;10210;52.284;9.892;2023-04-25T00:30:43;99632.00;;;13.10
20103;BMP180;10210;52.284;9.892;2023-04-25T00:33:09;99642.00;;;13.10
20103;BMP180;10210;52.284;9.892;2023-04-25T00:35:35;99633.00;;;13.10
20103;BMP180;10210;52.284;9.892;2023-04-25T00:38:01;99633.00;;;13.10
20103;BMP180;10210;52.284;9.892;2023-04-25T00:40:28;99639.00;;;13.10
20103;BMP180;10210;52.284;9.892;2023-04-25T00:42:54;99631.00;;;13.10
20103;BMP180;10210;52.284;9.892;2023-04-25T00:45:20;99634.00;;;13.10
20103;BMP180;10210;52.284;9.892;2023-04-25T00:47:46;99645.00;;;13.10
20103;BMP180;10210;52.284;9.892;2023-04-25T00:50:13;99640.00;;;13.10
20103;BMP180;10210;52.284;9.892;2023-04-25T00:52:44;99636.00;;;13.10
20103;BMP180;10210;52.284;9.892;2023-04-25T00:55:12;99624.00;;;13.10
20103;BMP180;10210;52.284;9.892;2023-04-25T00:57:38;99627.00;;;13.10
20103;BMP180;10210;52.284;9.892;2023-04-25T01:00:06;99628.00;;;13.10
20103;BMP180;10210;52.284;9.892;2023-04-25T01:02:35;99633.00;;;13.10
20103;BMP180;10210;52.284;9.892;2023-04-25T01:05:02;99623.00;;;13.10
20103;BMP180;10210;52.284;9.892;2023-04-25T01:07:28;99631.00;;;13.00
20103;BMP180;10210;52.284;9.892;2023-04-25T01:09:54;99623.00;;;13.00
20103;BMP180;10210;52.284;9.892;2023-04-25T01:12:20;99617.00;;;13.00
20103;BMP180;10210;52.284;9.892;2023-04-25T01:14:46;99624.00;;;13.00
20103;BMP180;10210;52.284;9.892;2023-04-25T01:17:12;99624.00;;;13.00
20103;BMP180;10210;52.284;9.892;2023-04-25T01:19:38;99624.00;;;13.00
20103;BMP180;10210;52.284;9.892;2023-04-25T01:22:04;99622.00;;;12.90
20103;BMP180;10210;52.284;9.892;2023-04-25T01:24:32;99617.00;;;12.90
20103;BMP180;10210;52.284;9.892;2023-04-25T01:27:00;99615.00;;;12.90
20103;BMP180;10210;52.284;9.892;2023-04-25T01:29:27;99610.00;;;12.90
20103;BMP180;10210;52.284;9.892;2023-04-25T01:31:53;99614.00;;;12.90
20103;BMP180;10210;52.284;9.892;2023-04-25T01:34:20;99608.00;;;12.80
20103;BMP180;10210;52.284;9.892;2023-04-25T01:36:49;99612.00;;;12.80
20103;BMP180;10210;52.284;9.892;2023-04-25T01:39:17;99622.00;;;12.80
20103;BMP180;10210;52.284;9.892;2023-04-25T01:41:43;99612.00;;;12.80
20103;BMP180;10210;52.284;9.892;2023-04-25T01:44:09;99611.00;;;12.70
20103;BMP180;10210;52.284;9.892;2023-04-25T01:46:35;99621.00;;;12.70
20103;BMP180;10210;52.284;9.892;2023-04-25T01:49:02;99626.00;;;12.70
20103;BMP180;10210;52.284;9.892;2023-04-25T01:51:28;99622.00;;;12.70
20103;BMP180;10210;52.284;9.892;2023-04-25T01:53:54;99623.00;;;12.70
20103;BMP180;10210;52.284;9.892;2023-04-25T01:56:20;99633.00;;;12.70
20103;BMP180;10210;52.284;9.892;2023-04-25T01:58:46;99622.00;;;12.60
20103;BMP180;10210;52.284;9.892;2023-04-25T02:01:12;99627.00;;;12.60
20103;BMP180;10210;52.284;9.892;2023-04-25T02:03:38;99632.00;;;12.60
20103;BMP180;10210;52.284;9.892;2023-04-25T02:06:04;99624.00;;;12.60
20103;BMP180;10210;52.284;9.892;2023-04-25T02:08:29;99637.00;;;12.60
20103;BMP180;10210;52.284;9.892;2023-04-25T02:10:55;99632.00;;;12.60
20103;BMP180;10210;52.284;9.892;2023-04-25T02:13:21;99630.00;;;12.60
20103;BMP180;10210;52.284;9.892;2023-04-25T02:15:47;99633.00;;;12.60
20103;BMP180;10210;52.284;9.892;2023-04-25T02:18:12;99637.00;;;12.60
20103;BMP180;10210;52.284;9.892;2023-04-25T02:20:38;99638.00;;;12.60
20103;BMP180;10210;52.284;9.892;2023-04-25T02:23:04;99634.00;;;12.60
20103;BMP180;10210;52.284;9.892;2023-04-25T02:25:30;99642.00;;;12.50
20103;BMP180;10210;52.284;9.892;2023-04-25T02:27:55;99641.00;;;12.60
20103;BMP180;10210;52.284;9.892;2023-04-25T02:30:21;99635.00;;;12.60
20103;BMP180;10210;52.284;9.892;2023-04-25T02:32:46;99637.00;;;12.60
20103;BMP180;10210;52.284;9.892;2023-04-25T02:35:12;99646.00;;;12.60
20103;BMP180;10210;52.284;9.892;2023-04-25T02:37:39;99642.00;;;12.50
20103;BMP180;10210;52.284;9.892;2023-04-25T02:40:06;99641.00;;;12.50
20103;BMP180;10210;52.284;9.892;2023-04-25T02:42:32;99649.00;;;12.50
20103;BMP180;10210;52.284;9.892;2023-04-25T02:44:58;99652.00;;;12.40
20103;BMP180;10210;52.284;9.892;2023-04-25T02:47:24;99669.00;;;12.30
20103;BMP180;10210;52.284;9.892;2023-04-25T02:49:49;99663.00;;;12.30
20103;BMP180;10210;52.284;9.892;2023-04-25T02:52:15;99668.00;;;12.20
20103;BMP180;10210;52.284;9.892;2023-04-25T02:54:41;99662.00;;;12.20
20103;BMP180;10210;52.284;9.892;2023-04-25T02:57:07;99656.00;;;12.20
20103;BMP180;10210;52.284;9.892;2023-04-25T02:59:33;99666.00;;;12.10
20103;BMP180;10210;52.284;9.892;2023-04-25T03:01:59;99665.00;;;12.10
20103;BMP180;10210;52.284;9.892;2023-04-25T03:04:24;99665.00;;;12.00
20103;BMP180;10210;52.284;9.892;2023-04-25T03:06:51;99664.00;;;12.00
20103;BMP180;10210;52.284;9.892;2023-04-25T03:09:17;99663.00;;;12.00
20103;BMP180;10210;52.284;9.892;2023-04-25T03:11:44;99677.00;;;12.00
20103;BMP180;10210;52.284;9.892;2023-04-25T03:14:10;99669.00;;;12.00
20103;BMP180;10210;52.284;9.892;2023-04-25T03:16:36;99674.00;;;12.00
20103;BMP180;10210;52.284;9.892;2023-04-25T03:19:03;99680.00;;;12.00
20103;BMP180;10210;52.284;9.892;2023-04-25T03:21:30;99671.00;;;12.00
20103;BMP180;10210;52.284;9.892;2023-04-25T03:23:58;99677.00;;;12.00
20103;BMP180;10210;52.284;9.892;2023-04-25T03:26:23;99671.00;;;12.00
20103;BMP180;10210;52.284;9.892;2023-04-25T03:28:49;99679.00;;;12.00
20103;BMP180;10210;52.284;9.892;2023-04-25T03:31:15;99687.00;;;12.00
20103;BMP180;10210;52.284;9.892;2023-04-25T03:33:41;99685.00;;;12.00
20103;BMP180;10210;52.284;9.892;2023-04-25T03:36:07;99676.00;;;12.00
20103;BMP180;10210;52.284;9.892;2023-04-25T03:38:33;99693.00;;;12.00
20103;BMP180;10210;52.284;9.892;2023-04-25T03:40:59;99688.00;;;12.00
20103;BMP180;10210;52.284;9.892;2023-04-25T03:43:24;99692.00;;;12.00
20103;BMP180;10210;52.284;9.892;2023-04-25T03:45:50;99702.00;;;12.00
20103;BMP180;10210;52.284;9.892;2023-04-25T03:48:16;99706.00;;;12.00
20103;BMP180;10210;52.284;9.892;2023-04-25T03:50:42;99705.00;;;12.00
20103;BMP180;10210;52.284;9.892;2023-04-25T03:53:07;99713.00;;;11.90
20103;BMP180;10210;52.284;9.892;2023-04-25T03:55:33;99713.00;;;11.90
20103;BMP180;10210;52.284;9.892;2023-04-25T03:57:58;99709.00;;;11.90
20103;BMP180;10210;52.284;9.892;2023-04-25T04:00:25;99711.00;;;11.90
20103;BMP180;10210;52.284;9.892;2023-04-25T04:02:51;99715.00;;;11.90
20103;BMP180;10210;52.284;9.892;2023-04-25T04:05:16;99731.00;;;11.90
20103;BMP180;10210;52.284;9.892;2023-04-25T04:07:42;99727.00;;;11.90
20103;BMP180;10210;52.284;9.892;2023-04-25T04:10:10;99718.00;;;11.90
20103;BMP180;10210;52.284;9.892;2023-04-25T04:12:36;99735.00;;;11.90
20103;BMP180;10210;52.284;9.892;2023-04-25T04:15:05;99736.00;;;11.90
20103;BMP180;10210;52.284;9.892;2023-04-25T04:17:31;99742.00;;;11.90
20103;BMP180;10210;52.284;9.892;2023-04-25T04:19:57;99739.00;;;11.80
20103;BMP180;10210;52.284;9.892;2023-04-25T04:22:23;99750.00;;;11.80
20103;BMP180;10210;52.284;9.892;2023-04-25T04:24:50;99745.00;;;11.80
20103;BMP180;10210;52.284;9.892;2023-04-25T04:27:18;99742.00;;;11.80
20103;BMP180;10210;52.284;9.892;2023-04-25T04:29:45;99742.00;;;11.80
20103;BMP180;10210;52.284;9.892;2023-04-25T04:32:14;99750.00;;;11.80
20103;BMP180;10210;52.284;9.892;2023-04-25T04:34:40;99748.00;;;11.80
20103;BMP180;10210;52.284;9.892;2023-04-25T04:37:07;99746.00;;;11.80
20103;BMP180;10210;52.284;9.892;2023-04-25T04:39:33;99744.00;;;11.80
20103;BMP180;10210;52.284;9.892;2023-04-25T04:41:59;99752.00;;;11.80
20103;BMP180;10210;52.284;9.892;2023-04-25T04:44:27;99749.00;;;11.80
20103;BMP180;10210;52.284;9.892;2023-04-25T04:46:54;99768.00;;;11.80
20103;BMP180;10210;52.284;9.892;2023-04-25T04:49:20;99756.00;;;11.80
20103;BMP180;10210;52.284;9.892;2023-04-25T04:51:46;99775.00;;;11.80
20103;BMP180;10210;52.284;9.892;2023-04-25T04:54:12;99762.00;;;11.80
20103;BMP180;10210;52.284;9.892;2023-04-25T04:56:38;99775.00;;;11.80
20103;BMP180;10210;52.284;9.892;2023-04-25T04:59:04;99775.00;;;11.80
20103;BMP180;10210;52.284;9.892;2023-04-25T05:01:30;99778.00;;;11.80
20103;BMP180;10210;52.284;9.892;2023-04-25T05:03:56;99781.00;;;11.80
20103;BMP180;10210;52.284;9.892;2023-04-25T05:06:27;99784.00;;;11.80
20103;BMP180;10210;52.284;9.892;2023-04-25T05:08:56;99791.00;;;11.80
20103;BMP180;10210;52.284;9.892;2023-04-25T05:11:23;99788.00;;;11.80
20103;BMP180;10210;52.284;9.892;2023-04-25T05:13:52;99798.00;;;11.80
20103;BMP180;10210;52.284;9.892;2023-04-25T05:16:19;99805.00;;;11.80
20103;BMP180;10210;52.284;9.892;2023-04-25T05:18:46;99792.00;;;11.80
20103;BMP180;10210;52.284;9.892;2023-04-25T05:21:12;99802.00;;;11.90
20103;BMP180;10210;52.284;9.892;2023-04-25T05:23:37;99798.00;;;11.80
20103;BMP180;10210;52.284;9.892;2023-04-25T05:26:03;99805.00;;;11.80
20103;BMP180;10210;52.284;9.892;2023-04-25T05:28:29;99803.00;;;11.80
20103;BMP180;10210;52.284;9.892;2023-04-25T05:30:55;99794.00;;;11.80
20103;BMP180;10210;52.284;9.892;2023-04-25T05:33:20;99818.00;;;11.90
20103;BMP180;10210;52.284;9.892;2023-04-25T05:35:46;99806.00;;;11.90
20103;BMP180;10210;52.284;9.892;2023-04-25T05:38:12;99809.00;;;11.90
20103;BMP180;10210;52.284;9.892;2023-04-25T05:40:38;99817.00;;;11.90
20103;BMP180;10210;52.284;9.892;2023-04-25T05:43:03;99828.00;;;11.90
20103;BMP180;10210;52.284;9.892;2023-04-25T05:45:29;99829.00;;;11.90
20103;BMP180;10210;52.284;9.892;2023-04-25T05:47:55;99825.00;;;11.90
20103;BMP180;10210;52.284;9.892;2023-04-25T05:50:21;99824.00;;;12.00
20103;BMP180;10210;52.284;9.892;2023-04-25T05:52:47;99835.00;;;12.00
20103;BMP180;10210;52.284;9.892;2023-04-25T05:55:12;99837.00;;;12.00
20103;BMP180;10210;52.284;9.892;2023-04-25T05:57:39;99839.00;;;12.10
20103;BMP180;10210;52.284;9.892;2023-04-25T06:00:08;99846.00;;;12.10
20103;BMP180;10210;52.284;9.892;2023-04-25T06:02:35;99844.00;;;12.10
20103;BMP180;10210;52.284;9.892;2023-04-25T06:05:01;99851.00;;;12.10
20103;BMP180;10210;52.284;9.892;2023-04-25T06:07:29;99850.00;;;12.10
20103;BMP180;10210;52.284;9.892;2023-04-25T06:09:55;99852.00;;;12.10
20103;BMP180;10210;52.284;9.892;2023-04-25T06:12:21;99859.00;;;12.10
20103;BMP180;10210;52.284;9.892;2023-04-25T06:14:46;99867.00;;;12.10
20103;BMP180;10210;52.284;9.892;2023-04-25T06:17:13;99876.00;;;12.20
20103;BMP180;10210;52.284;9.892;2023-04-25T06:19:38;99873.00;;;12.20
20103;BMP180;10210;52.284;9.892;2023-04-25T06:22:04;99872.00;;;12.10
20103;BMP180;10210;52.284;9.892;2023-04-25T06:24:30;99878.00;;;12.10
20103;BMP180;10210;52.284;9.892;2023-04-25T06:26:55;99878.00;;;12.10
20103;BMP180;10210;52.284;9.892;2023-04-25T06:29:21;99876.00;;;12.10
20103;BMP180;10210;52.284;9.892;2023-04-25T06:31:47;99873.00;;;12.10
20103;BMP180;10210;52.284;9.892;2023-04-25T06:34:12;99880.00;;;12.10
20103;BMP180;10210;52.284;9.892;2023-04-25T06:36:38;99877.00;;;12.20
20103;BMP180;10210;52.284;9.892;2023-04-25T06:39:04;99887.00;;;12.20
20103;BMP180;10210;52.284;9.892;2023-04-25T06:41:29;99883.00;;;12.20
20103;BMP180;10210;52.284;9.892;2023-04-25T06:43:55;99887.00;;;12.20
20103;BMP180;10210;52.284;9.892;2023-04-25T06:46:21;99899.00;;;12.20
20103;BMP180;10210;52.284;9.892;2023-04-25T06:48:46;99887.00;;;12.30
20103;BMP180;10210;52.284;9.892;2023-04-25T06:51:12;99887.00;;;12.30
20103;BMP180;10210;52.284;9.892;2023-04-25T06:53:41;99884.00;;;12.40
20103;BMP180;10210;52.284;9.892;2023-04-25T06:56:07;99871.00;;;12.40
20103;BMP180;10210;52.284;9.892;2023-04-25T06:58:32;99879.00;;;12.50
20103;BMP180;10210;52.284;9.892;2023-04-25T07:00:58;99875.00;;;12.60
20103;BMP180;10210;52.284;9.892;2023-04-25T07:03:23;99881.00;;;12.60
20103;BMP180;10210;52.284;9.892;2023-04-25T07:05:50;99884.00;;;12.60
20103;BMP180;10210;52.284;9.892;2023-04-25T07:08:16;99884.00;;;12.70
20103;BMP180;10210;52.284;9.892;2023-04-25T07:10:48;99889.00;;;12.80
20103;BMP180;10210;52.284;9.892;2023-04-25T07:13:14;99898.00;;;12.80
20103;BMP180;10210;52.284;9.892;2023-04-25T07:15:40;99897.00;;;12.90
20103;BMP180;10210;52.284;9.892;2023-04-25T07:18:06;99898.00;;;13.00
20103;BMP180;10210;52.284;9.892;2023-04-25T07:20:31;99902.00;;;13.20
20103;BMP180;10210;52.284;9.892;2023-04-25T07:22:58;99895.00;;;13.30
20103;BMP180;10210;52.284;9.892;2023-04-25T07:25:23;99900.00;;;13.20
20103;BMP180;10210;52.284;9.892;2023-04-25T07:27:50;99914.00;;;13.20
20103;BMP180;10210;52.284;9.892;2023-04-25T07:30:15;99916.00;;;13.20
20103;BMP180;10210;52.284;9.892;2023-04-25T07:32:41;99908.00;;;13.20
20103;BMP180;10210;52.284;9.892;2023-04-25T07:35:07;99915.00;;;13.20
20103;BMP180;10210;52.284;9.892;2023-04-25T07:37:34;99914.00;;;13.20
20103;BMP180;10210;52.284;9.892;2023-04-25T07:40:00;99910.00;;;13.20
20103;BMP180;10210;52.284;9.892;2023-04-25T07:42:25;99916.00;;;13.10
20103;BMP180;10210;52.284;9.892;2023-04-25T07:44:51;99915.00;;;13.10
20103;BMP180;10210;52.284;9.892;2023-04-25T07:47:17;99917.00;;;13.10
20103;BMP180;10210;52.284;9.892;2023-04-25T07:49:47;99910.00;;;13.00
20103;BMP180;10210;52.284;9.892;2023-04-25T07:52:13;99928.00;;;13.00
20103;BMP180;10210;52.284;9.892;2023-04-25T07:54:39;99925.00;;;12.90
20103;BMP180;10210;52.284;9.892;2023-04-25T07:57:05;99922.00;;;12.80
20103;BMP180;10210;52.284;9.892;2023-04-25T07:59:32;99932.00;;;12.80
20103;BMP180;10210;52.284;9.892;2023-04-25T08:01:58;99933.00;;;12.80
20103;BMP180;10210;52.284;9.892;2023-04-25T08:04:24;99939.00;;;12.70
20103;BMP180;10210;52.284;9.892;2023-04-25T08:06:51;99940.00;;;12.80
20103;BMP180;10210;52.284;9.892;2023-04-25T08:09:17;99944.00;;;12.80
20103;BMP180;10210;52.284;9.892;2023-04-25T08:11:43;99936.00;;;12.80
20103;BMP180;10210;52.284;9.892;2023-04-25T08:14:09;99938.00;;;12.80
20103;BMP180;10210;52.284;9.892;2023-04-25T08:16:35;99945.00;;;12.80
20103;BMP180;10210;52.284;9.892;2023-04-25T08:19:00;99953.00;;;12.80
20103;BMP180;10210;52.284;9.892;2023-04-25T08:21:26;99968.00;;;12.90
20103;BMP180;10210;52.284;9.892;2023-04-25T08:23:54;99966.00;;;12.90
20103;BMP180;10210;52.284;9.892;2023-04-25T08:26:20;99959.00;;;12.90
20103;BMP180;10210;52.284;9.892;2023-04-25T08:28:46;99959.00;;;13.00
20103;BMP180;10210;52.284;9.892;2023-04-25T08:31:12;99961.00;;;13.00
20103;BMP180;10210;52.284;9.892;2023-04-25T08:33:40;99963.00;;;13.10
20103;BMP180;10210;52.284;9.892;2023-04-25T08:36:06;99965.00;;;13.30
20103;BMP180;10210;52.284;9.892;2023-04-25T08:38:32;99965.00;;;13.60
20103;BMP180;10210;52.284;9.892;2023-04-25T08:41:00;99982.00;;;13.90
20103;BMP180;10210;52.284;9.892;2023-04-25T08:43:28;99980.00;;;14.30
20103;BMP180;10210;52.284;9.892;2023-04-25T08:46:01;99984.00;;;14.50
20103;BMP180;10210;52.284;9.892;2023-04-25T08:48:28;99991.00;;;14.70
20103;BMP180;10210;52.284;9.892;2023-04-25T08:50:56;99997.00;;;14.80
20103;BMP180;10210;52.284;9.892;2023-04-25T08:53:31;99991.00;;;15.00
20103;BMP180;10210;52.284;9.892;2023-04-25T08:56:00;100000.00;;;15.20
20103;BMP180;10210;52.284;9.892;2023-04-25T08:58:28;99995.00;;;15.30
20103;BMP180;10210;52.284;9.892;2023-04-25T09:00:54;100003.00;;;15.40
20103;BMP180;10210;52.284;9.892;2023-04-25T09:03:19;100003.00;;;15.40
20103;BMP180;10210;52.284;9.892;2023-04-25T09:05:45;99996.00;;;15.30
20103;BMP180;10210;52.284;9.892;2023-04-25T09:08:11;100006.00;;;15.20
20103;BMP180;10210;52.284;9.892;2023-04-25T09:10:38;100012.00;;;15.10
20103;BMP180;10210;52.284;9.892;2023-04-25T09:13:12;100007.00;;;14.90
20103;BMP180;10210;52.284;9.892;2023-04-25T09:15:51;100024.00;;;14.60
20103;BMP180;10210;52.284;9.892;2023-04-25T09:20:53;100023.00;;;14.30
20103;BMP180;10210;52.284;9.892;2023-04-25T09:23:20;100035.00;;;14.20
20103;BMP180;10210;52.284;9.892;2023-04-25T09:25:48;100049.00;;;14.10
20103;BMP180;10210;52.284;9.892;2023-04-25T09:28:14;100039.00;;;14.00
20103;BMP180;10210;52.284;9.892;2023-04-25T09:30:48;100044.00;;;13.90
20103;BMP180;10210;52.284;9.892;2023-04-25T09:33:14;100051.00;;;13.90
20103;BMP180;10210;52.284;9.892;2023-04-25T09:35:43;100043.00;;;13.90
20103;BMP180;10210;52.284;9.892;2023-04-25T09:38:13;100044.00;;;14.00
20103;BMP180;10210;52.284;9.892;2023-04-25T09:40:41;100051.00;;;14.20
20103;BMP180;10210;52.284;9.892;2023-04-25T09:43:25;100054.00;;;14.50
20103;BMP180;10210;52.284;9.892;2023-04-25T09:45:54;100038.00;;;14.70
20103;BMP180;10210;52.284;9.892;2023-04-25T09:48:26;100049.00;;;14.90
20103;BMP180;10210;52.284;9.892;2023-04-25T09:51:14;100045.00;;;15.10
20103;BMP180;10210;52.284;9.892;2023-04-25T09:53:43;100050.00;;;15.30
20103;BMP180;10210;52.284;9.892;2023-04-25T09:56:11;100057.00;;;15.40
20103;BMP180;10210;52.284;9.892;2023-04-25T09:58:39;100042.00;;;15.50
20103;BMP180;10210;52.284;9.892;2023-04-25T10:01:08;100057.00;;;15.60
20103;BMP180;10210;52.284;9.892;2023-04-25T10:03:38;100059.00;;;15.60
20103;BMP180;10210;52.284;9.892;2023-04-25T10:06:18;100058.00;;;15.70
20103;BMP180;10210;52.284;9.892;2023-04-25T10:08:45;100050.00;;;15.80
20103;BMP180;10210;52.284;9.892;2023-04-25T10:11:15;100057.00;;;15.90
20103;BMP180;10210;52.284;9.892;2023-04-25T10:13:42;100052.00;;;15.90
20103;BMP180;10210;52.284;9.892;2023-04-25T10:16:08;100066.00;;;15.90
20103;BMP180;10210;52.284;9.892;2023-04-25T10:18:34;100069.00;;;15.90
20103;BMP180;10210;52.284;9.892;2023-04-25T10:21:04;100061.00;;;15.90
20103;BMP180;10210;52.284;9.892;2023-04-25T10:23:31;100075.00;;;16.00
20103;BMP180;10210;52.284;9.892;2023-04-25T10:25:58;100062.00;;;15.90
20103;BMP180;10210;52.284;9.892;2023-04-25T10:28:24;100052.00;;;15.80
20103;BMP180;10210;52.284;9.892;2023-04-25T10:31:04;100079.00;;;15.70
20103;BMP180;10210;52.284;9.892;2023-04-25T10:33:40;100079.00;;;15.60
20103;BMP180;10210;52.284;9.892;2023-04-25T10:36:31;100076.00;;;15.30
20103;BMP180;10210;52.284;9.892;2023-04-25T10:39:06;100080.00;;;15.30
20103;BMP180;10210;52.284;9.892;2023-04-25T10:41:56;100093.00;;;15.20
20103;BMP180;10210;52.284;9.892;2023-04-25T10:44:22;100092.00;;;15.10
20103;BMP180;10210;52.284;9.892;2023-04-25T10:46:48;100101.00;;;15.00
20103;BMP180;10210;52.284;9.892;2023-04-25T10:49:37;100094.00;;;14.90
20103;BMP180;10210;52.284;9.892;2023-04-25T10:54:57;100095.00;;;14.70
20103;BMP180;10210;52.284;9.892;2023-04-25T10:57:44;100102.00;;;14.60
20103;BMP180;10210;52.284;9.892;2023-04-25T11:00:20;100099.00;;;14.60
20103;BMP180;10210;52.284;9.892;2023-04-25T11:02:59;100102.00;;;14.60
20103;BMP180;10210;52.284;9.892;2023-04-25T11:05:31;100111.00;;;14.50
20103;BMP180;10210;52.284;9.892;2023-04-25T11:07:58;100106.00;;;14.50
20103;BMP180;10210;52.284;9.892;2023-04-25T11:10:30;100110.00;;;14.60
20103;BMP180;10210;52.284;9.892;2023-04-25T11:12:57;100103.00;;;14.60
20103;BMP180;10210;52.284;9.892;2023-04-25T11:15:24;100107.00;;;14.70
20103;BMP180;10210;52.284;9.892;2023-04-25T11:17:54;100107.00;;;14.80
20103;BMP180;10210;52.284;9.892;2023-04-25T11:20:21;100112.00;;;14.80
20103;BMP180;10210;52.284;9.892;2023-04-25T11:22:47;100121.00;;;14.80
20103;BMP180;10210;52.284;9.892;2023-04-25T11:25:15;100113.00;;;14.80
20103;BMP180;10210;52.284;9.892;2023-04-25T11:27:58;100129.00;;;14.80
20103;BMP180;10210;52.284;9.892;2023-04-25T11:30:26;100129.00;;;14.80
20103;BMP180;10210;52.284;9.892;2023-04-25T11:32:52;100113.00;;;14.80
20103;BMP180;10210;52.284;9.892;2023-04-25T11:35:19;100117.00;;;14.90
20103;BMP180;10210;52.284;9.892;2023-04-25T11:37:45;100112.00;;;15.00
20103;BMP180;10210;52.284;9.892;2023-04-25T11:40:12;100118.00;;;15.10
20103;BMP180;10210;52.284;9.892;2023-04-25T11:42:39;100112.00;;;15.10
20103;BMP180;10210;52.284;9.892;2023-04-25T11:45:08;100113.00;;;15.20
20103;BMP180;10210;52.284;9.892;2023-04-25T11:47:35;100112.00;;;15.20
20103;BMP180;10210;52.284;9.892;2023-04-25T11:50:03;100124.00;;;15.30
20103;BMP180;10210;52.284;9.892;2023-04-25T11:52:44;100124.00;;;15.30
20103;BMP180;10210;52.284;9.892;2023-04-25T11:55:17;100135.00;;;15.20
20103;BMP180;10210;52.284;9.892;2023-04-25T11:57:46;100140.00;;;15.20
20103;BMP180;10210;52.284;9.892;2023-04-25T12:00:18;100137.00;;;15.10
20103;BMP180;10210;52.284;9.892;2023-04-25T12:02:54;100146.00;;;15.00
20103;BMP180;10210;52.284;9.892;2023-04-25T12:05:24;100151.00;;;14.90
20103;BMP180;10210;52.284;9.892;2023-04-25T12:07:50;100137.00;;;14.80
20103;BMP180;10210;52.284;9.892;2023-04-25T12:10:19;100153.00;;;14.80
20103;BMP180;10210;52.284;9.892;2023-04-25T12:12:47;100162.00;;;14.70
20103;BMP180;10210;52.284;9.892;2023-04-25T12:15:14;100149.00;;;14.60
20103;BMP180;10210;52.284;9.892;2023-04-25T12:17:50;100156.00;;;14.60
20103;BMP180;10210;52.284;9.892;2023-04-25T12:20:21;100148.00;;;14.60
20103;BMP180;10210;52.284;9.892;2023-04-25T12:22:50;100159.00;;;14.60
20103;BMP180;10210;52.284;9.892;2023-04-25T12:25:43;100168.00;;;14.60
20103;BMP180;10210;52.284;9.892;2023-04-25T12:28:22;100170.00;;;14.60
20103;BMP180;10210;52.284;9.892;2023-04-25T12:31:00;100160.00;;;14.60
20103;BMP180;10210;52.284;9.892;2023-04-25T12:33:32;100163.00;;;14.60
20103;BMP180;10210;52.284;9.892;2023-04-25T12:35:59;100162.00;;;14.70
20103;BMP180;10210;52.284;9.892;2023-04-25T12:38:31;100169.00;;;14.80
20103;BMP180;10210;52.284;9.892;2023-04-25T12:41:00;100159.00;;;14.80
20103;BMP180;10210;52.284;9.892;2023-04-25T12:43:26;100166.00;;;14.90
20103;BMP180;10210;52.284;9.892;2023-04-25T12:45:53;100162.00;;;15.00
20103;BMP180;10210;52.284;9.892;2023-04-25T12:48:23;100159.00;;;15.10
20103;BMP180;10210;52.284;9.892;2023-04-25T12:50:51;100171.00;;;15.20
20103;BMP180;10210;52.284;9.892;2023-04-25T12:53:22;100165.00;;;15.30
20103;BMP180;10210;52.284;9.892;2023-04-25T12:55:54;100162.00;;;15.30
20103;BMP180;10210;52.284;9.892;2023-04-25T12:58:23;100168.00;;;15.40
20103;BMP180;10210;52.284;9.892;2023-04-25T13:00:50;100176.00;;;15.40
20103;BMP180;10210;52.284;9.892;2023-04-25T13:03:16;100175.00;;;15.40
20103;BMP180;10210;52.284;9.892;2023-04-25T13:05:43;100181.00;;;15.40
20103;BMP180;10210;52.284;9.892;2023-04-25T13:08:08;100183.00;;;15.40
20103;BMP180;10210;52.284;9.892;2023-04-25T13:10:40;100183.00;;;15.30
20103;BMP180;10210;52.284;9.892;2023-04-25T13:13:06;100193.00;;;15.30
20103;BMP180;10210;52.284;9.892;2023-04-25T13:15:32;100190.00;;;15.30
20103;BMP180;10210;52.284;9.892;2023-04-25T13:17:57;100190.00;;;15.30
20103;BMP180;10210;52.284;9.892;2023-04-25T13:20:23;100190.00;;;15.20
20103;BMP180;10210;52.284;9.892;2023-04-25T13:22:49;100205.00;;;15.20
20103;BMP180;10210;52.284;9.892;2023-04-25T13:25:24;100203.00;;;15.10
20103;BMP180;10210;52.284;9.892;2023-04-25T13:27:56;100197.00;;;15.00
20103;BMP180;10210;52.284;9.892;2023-04-25T13:30:23;100212.00;;;14.90
20103;BMP180;10210;52.284;9.892;2023-04-25T13:33:08;100208.00;;;14.80
20103;BMP180;10210;52.284;9.892;2023-04-25T13:35:38;100208.00;;;14.70
20103;BMP180;10210;52.284;9.892;2023-04-25T13:38:22;100208.00;;;14.60
20103;BMP180;10210;52.284;9.892;2023-04-25T13:40:49;100206.00;;;14.50
20103;BMP180;10210;52.284;9.892;2023-04-25T13:43:21;100215.00;;;14.40
20103;BMP180;10210;52.284;9.892;2023-04-25T13:45:50;100203.00;;;14.40
20103;BMP180;10210;52.284;9.892;2023-04-25T13:48:16;100214.00;;;14.30
20103;BMP180;10210;52.284;9.892;2023-04-25T13:50:41;100209.00;;;14.30
20103;BMP180;10210;52.284;9.892;2023-04-25T13:53:07;100214.00;;;14.30
20103;BMP180;10210;52.284;9.892;2023-04-25T13:55:44;100212.00;;;14.30
20103;BMP180;10210;52.284;9.892;2023-04-25T13:58:13;100216.00;;;14.40
20103;BMP180;10210;52.284;9.892;2023-04-25T14:00:40;100209.00;;;14.50
20103;BMP180;10210;52.284;9.892;2023-04-25T14:03:08;100205.00;;;14.60
20103;BMP180;10210;52.284;9.892;2023-04-25T14:05:36;100206.00;;;14.70
20103;BMP180;10210;52.284;9.892;2023-04-25T14:08:14;100199.00;;;14.80
20103;BMP180;10210;52.284;9.892;2023-04-25T14:10:40;100204.00;;;14.90
20103;BMP180;10210;52.284;9.892;2023-04-25T14:13:06;100210.00;;;15.00